createdAt,value
2018-04-27T00:01:33.825Z,69.70
2018-04-27T00:04:00.110Z,70.00
2018-04-27T00:06:26.781Z,70.40
2018-04-27T00:08:53.025Z,70.40
2018-04-27T00:11:19.285Z,70.30
2018-04-27T00:13:45.542Z,70.40
2018-04-27T00:16:13.066Z,70.80
2018-04-27T00:18:39.282Z,70.80
2018-04-27T00:21:06.314Z,71.00
2018-04-27T00:23:32.826Z,71.00
2018-04-27T00:25:59.850Z,71.50
2018-04-27T00:28:26.081Z,70.80
2018-04-27T00:30:52.310Z,70.80
2018-04-27T00:33:20.141Z,70.40
2018-04-27T00:35:46.395Z,70.20
2018-04-27T00:38:12.653Z,70.10
2018-04-27T00:40:39.642Z,70.00
2018-04-27T00:43:05.867Z,69.80
2018-04-27T00:45:32.118Z,69.70
2018-04-27T00:47:58.577Z,70.00
2018-04-27T00:50:24.829Z,70.40
2018-04-27T00:53:03.999Z,70.00
2018-04-27T00:55:30.252Z,70.10
2018-04-27T00:57:56.484Z,70.20
2018-04-27T01:00:22.959Z,70.90
2018-04-27T01:02:49.179Z,70.80
2018-04-27T01:05:15.427Z,70.40
2018-04-27T01:07:42.398Z,70.90
2018-04-27T01:10:08.626Z,70.90
2018-04-27T01:12:34.861Z,71.20
2018-04-27T01:15:01.087Z,71.90
2018-04-27T01:17:27.585Z,71.10
2018-04-27T01:19:54.594Z,71.60
2018-04-27T01:22:20.918Z,71.70
2018-04-27T01:24:47.483Z,71.90
2018-04-27T01:27:13.737Z,71.90
2018-04-27T01:29:39.993Z,71.60
2018-04-27T01:32:06.244Z,71.80
2018-04-27T01:34:32.822Z,71.80
2018-04-27T01:36:59.066Z,71.90
2018-04-27T01:39:25.302Z,72.20
2018-04-27T01:41:51.585Z,72.30
2018-04-27T01:44:17.822Z,72.20
2018-04-27T01:46:44.597Z,72.20
2018-04-27T01:49:10.835Z,72.40
2018-04-27T01:51:37.821Z,72.20
2018-04-27T01:54:04.065Z,72.50
2018-04-27T01:56:30.326Z,72.90
2018-04-27T01:58:56.594Z,72.60
2018-04-27T02:01:22.880Z,72.90
2018-04-27T02:03:49.141Z,73.30
2018-04-27T02:06:15.406Z,73.20
2018-04-27T02:08:42.465Z,73.10
2018-04-27T02:11:08.733Z,73.10
2018-04-27T02:13:35.228Z,73.00
2018-04-27T02:16:01.467Z,72.90
2018-04-27T02:18:28.115Z,73.10
2018-04-27T02:20:54.806Z,73.20
2018-04-27T02:23:21.062Z,73.20
2018-04-27T02:25:47.537Z,73.20
2018-04-27T02:28:13.805Z,73.50
2018-04-27T02:30:40.052Z,73.20
2018-04-27T02:33:07.062Z,73.40
2018-04-27T02:35:33.301Z,73.40
2018-04-27T02:37:59.622Z,73.60
2018-04-27T02:40:26.052Z,73.40
2018-04-27T02:42:53.072Z,73.30
2018-04-27T02:45:19.396Z,73.30
2018-04-27T02:47:45.641Z,73.50
2018-04-27T02:50:11.873Z,73.50
2018-04-27T02:52:38.152Z,73.60
2018-04-27T02:55:04.441Z,73.40
2018-04-27T02:57:30.850Z,73.30
2018-04-27T03:00:00.014Z,73.40
2018-04-27T03:02:27.211Z,73.80
2018-04-27T03:04:53.501Z,73.80
2018-04-27T03:07:19.758Z,73.80
2018-04-27T03:09:46.770Z,74.40
2018-04-27T03:12:13.008Z,74.40
2018-04-27T03:14:39.298Z,74.50
2018-04-27T03:17:05.589Z,74.20
2018-04-27T03:19:32.849Z,74.30
2018-04-27T03:21:59.812Z,74.20
2018-04-27T03:24:26.093Z,74.10
2018-04-27T03:26:52.376Z,74.00
2018-04-27T03:29:18.665Z,74.10
2018-04-27T03:31:45.250Z,74.10
2018-04-27T03:34:11.547Z,74.40
2018-04-27T03:36:38.121Z,74.10
2018-04-27T03:39:05.432Z,74.20
2018-04-27T03:41:31.774Z,74.40
2018-04-27T03:43:58.793Z,74.30
2018-04-27T03:46:25.047Z,74.20
2018-04-27T03:48:51.293Z,74.40
2018-04-27T03:51:17.801Z,74.10
2018-04-27T03:53:44.085Z,74.40
2018-04-27T03:56:10.329Z,74.40
2018-04-27T03:58:36.701Z,74.40
2018-04-27T04:01:15.152Z,74.70
2018-04-27T04:04:03.375Z,74.60
2018-04-27T04:06:30.367Z,75.10
2018-04-27T04:08:56.617Z,75.10
2018-04-27T04:11:23.662Z,75.00
2018-04-27T04:13:49.918Z,75.00
2018-04-27T04:16:16.378Z,74.90
2018-04-27T04:18:42.657Z,74.80
2018-04-27T04:21:08.909Z,74.80
2018-04-27T04:23:35.356Z,74.80
2018-04-27T04:26:01.610Z,75.10
2018-04-27T04:28:27.891Z,75.30
2018-04-27T04:30:55.777Z,75.70
2018-04-27T04:33:22.529Z,75.70
2018-04-27T04:35:49.205Z,76.00
2018-04-27T04:38:15.475Z,75.80
2018-04-27T04:40:41.753Z,75.40
2018-04-27T04:43:08.260Z,75.50
2018-04-27T04:45:34.565Z,75.60
2018-04-27T04:48:00.785Z,75.40
2018-04-27T04:50:27.198Z,75.60
2018-04-27T04:52:53.457Z,75.50
2018-04-27T04:55:19.997Z,75.50
2018-04-27T04:57:46.261Z,75.40
2018-04-27T05:00:12.544Z,75.00
2018-04-27T05:02:39.573Z,74.90
2018-04-27T05:05:06.728Z,74.80
2018-04-27T05:07:33.379Z,74.80
2018-04-27T05:09:59.657Z,74.60
2018-04-27T05:12:25.882Z,74.50
2018-04-27T05:14:52.401Z,74.30
2018-04-27T05:17:18.650Z,74.20
2018-04-27T05:19:50.938Z,73.50
2018-04-27T05:22:17.169Z,73.40
2018-04-27T05:24:43.734Z,72.80
2018-04-27T05:27:10.021Z,72.20
2018-04-27T05:29:36.362Z,72.10
2018-04-27T05:32:02.653Z,71.10
2018-04-27T05:34:28.910Z,71.20
2018-04-27T05:36:55.918Z,70.70
2018-04-27T05:39:23.213Z,70.90
2018-04-27T05:41:49.778Z,70.80
2018-04-27T05:44:16.047Z,69.90
2018-04-27T05:46:42.346Z,70.30
2018-04-27T05:49:08.587Z,70.40
2018-04-27T05:51:35.856Z,69.70
2018-04-27T05:54:02.127Z,70.70
2018-04-27T05:56:28.414Z,70.30
2018-04-27T05:58:54.669Z,70.00
2018-04-27T06:44:59.341Z,70.10
2018-04-27T06:47:25.617Z,66.30
2018-04-27T06:49:51.909Z,66.00
2018-04-27T06:52:18.429Z,65.90
2018-04-27T06:54:45.737Z,65.40
2018-04-27T06:57:12.022Z,64.60
2018-04-27T06:59:38.273Z,63.90
2018-04-27T07:02:04.814Z,63.50
2018-04-27T07:04:31.053Z,63.90
2018-04-27T07:06:57.334Z,64.10
2018-04-27T07:09:24.333Z,64.20
2018-04-27T07:11:51.138Z,64.20
2018-04-27T07:14:17.787Z,64.40
2018-04-27T07:16:44.034Z,64.30
2018-04-27T07:19:25.190Z,64.50
2018-04-27T07:21:51.445Z,63.50
2018-04-27T07:24:17.689Z,62.20
2018-04-27T07:26:43.970Z,61.30
2018-04-27T07:29:10.705Z,61.30
2018-04-27T07:31:36.985Z,61.40
2018-04-27T07:34:03.241Z,60.90
2018-04-27T07:36:29.526Z,61.70
2018-04-27T07:38:55.777Z,60.20
2018-04-27T07:41:22.058Z,59.30
2018-04-27T07:43:48.346Z,58.70
2018-04-27T07:46:15.951Z,59.00
2018-04-27T07:48:48.537Z,58.90
2018-04-27T07:51:18.037Z,59.10
2018-04-27T07:53:49.601Z,58.30
2018-04-27T07:56:24.220Z,58.10
2018-04-27T07:58:55.610Z,57.80
2018-04-27T08:01:22.833Z,56.70
2018-04-27T08:03:50.249Z,56.10
2018-04-27T08:06:16.481Z,56.10
2018-04-27T08:08:44.126Z,55.40
2018-04-27T08:11:10.378Z,55.40
2018-04-27T08:13:41.042Z,56.10
2018-04-27T08:16:07.325Z,55.00
2018-04-27T08:18:33.696Z,54.90
2018-04-27T08:21:00.627Z,55.20
2018-04-27T08:23:26.889Z,55.10
2018-04-27T08:25:53.138Z,54.60
2018-04-27T08:28:20.142Z,54.30
2018-04-27T08:30:46.403Z,54.30
2018-04-27T08:33:14.573Z,53.40
2018-04-27T08:35:42.653Z,54.20
2018-04-27T08:38:09.493Z,55.80
2018-04-27T08:40:39.177Z,53.70
2018-04-27T08:43:05.449Z,52.10
2018-04-27T08:45:31.734Z,52.50
2018-04-27T08:47:58.009Z,51.20
2018-04-27T08:50:25.188Z,51.10
2018-04-27T08:52:52.186Z,50.50
2018-04-27T08:55:18.468Z,50.50
2018-04-27T08:57:44.745Z,50.50
2018-04-27T09:00:11.045Z,49.10
2018-04-27T09:02:37.338Z,49.30
2018-04-27T09:05:03.723Z,48.30
2018-04-27T09:07:30.153Z,48.00
2018-04-27T09:09:56.462Z,45.30
2018-04-27T09:12:22.741Z,46.60
2018-04-27T09:14:49.053Z,45.80
2018-04-27T09:17:30.480Z,46.30
2018-04-27T09:19:58.362Z,45.70
2018-04-27T09:22:24.636Z,45.90
2018-04-27T09:24:52.497Z,44.30
2018-04-27T09:27:18.797Z,44.80
2018-04-27T09:29:45.826Z,47.70
2018-04-27T09:32:13.164Z,47.70
2018-04-27T09:34:40.143Z,45.60
2018-04-27T09:37:07.394Z,45.40
2018-04-27T09:39:33.732Z,45.00
2018-04-27T09:42:01.104Z,42.10
2018-04-27T09:44:27.410Z,42.50
2018-04-27T09:46:54.494Z,40.90
2018-04-27T09:49:20.793Z,42.80
2018-04-27T09:51:47.503Z,42.20
2018-04-27T09:54:13.877Z,42.50
2018-04-27T09:56:40.714Z,42.30
2018-04-27T09:59:06.986Z,42.90
2018-04-27T10:01:33.841Z,41.10
2018-04-27T10:04:01.352Z,42.90
2018-04-27T10:06:28.423Z,42.00
2018-04-27T10:08:55.109Z,41.90
2018-04-27T10:11:24.308Z,40.60
2018-04-27T10:13:50.585Z,40.90
2018-04-27T10:16:17.218Z,40.20
2018-04-27T10:18:44.002Z,40.50
2018-04-27T10:21:10.273Z,39.60
2018-04-27T10:23:37.603Z,38.00
2018-04-27T10:26:03.893Z,37.90
2018-04-27T10:28:30.789Z,39.10
2018-04-27T10:30:57.502Z,36.80
2018-04-27T10:33:23.732Z,37.70
2018-04-27T10:35:50.026Z,37.00
2018-04-27T10:38:16.778Z,38.30
2018-04-27T10:40:43.102Z,37.50
2018-04-27T10:43:15.478Z,37.50
2018-04-27T10:45:41.785Z,37.30
2018-04-27T10:48:08.089Z,37.00
2018-04-27T10:50:35.093Z,37.10
2018-04-27T10:53:01.385Z,36.60
2018-04-27T10:55:27.954Z,39.60
2018-04-27T10:57:54.253Z,38.70
2018-04-27T11:00:21.901Z,37.40
2018-04-27T11:02:48.207Z,37.40
2018-04-27T11:05:14.734Z,37.20
2018-04-27T11:07:42.408Z,36.00
2018-04-27T11:10:08.901Z,35.90
2018-04-27T11:12:35.206Z,37.60
2018-04-27T11:15:01.606Z,37.30
2018-04-27T11:17:27.970Z,38.50
2018-04-27T11:19:54.578Z,38.10
2018-04-27T11:22:20.870Z,37.50
2018-04-27T11:24:47.200Z,36.00
2018-04-27T11:27:13.518Z,35.30
2018-04-27T11:29:39.768Z,36.20
2018-04-27T11:32:06.029Z,36.60
2018-04-27T11:34:35.245Z,36.40
2018-04-27T11:37:01.778Z,35.80
2018-04-27T11:39:28.023Z,36.60
2018-04-27T11:41:54.310Z,36.70
2018-04-27T11:44:20.580Z,35.60
2018-04-27T11:46:47.601Z,36.70
2018-04-27T11:49:13.873Z,36.60
2018-04-27T11:51:40.181Z,36.50
2018-04-27T11:54:06.889Z,35.50
2018-04-27T11:56:33.243Z,36.90
2018-04-27T11:58:59.568Z,37.80
2018-04-27T12:01:25.992Z,35.60
2018-04-27T12:03:52.274Z,35.70
2018-04-27T12:06:18.578Z,36.50
2018-04-27T12:08:44.885Z,37.70
2018-04-27T12:11:12.098Z,37.10
2018-04-27T12:13:38.633Z,36.30
2018-04-27T12:16:05.684Z,37.30
2018-04-27T12:18:32.205Z,37.30
2018-04-27T12:20:58.485Z,36.40
2018-04-27T12:23:25.011Z,37.10
2018-04-27T12:25:51.274Z,36.50
2018-04-27T12:28:17.543Z,36.90
2018-04-27T12:30:43.810Z,35.50
2018-04-27T12:33:10.059Z,34.90
2018-04-27T12:35:36.666Z,35.00
2018-04-27T12:38:02.921Z,33.80
2018-04-27T12:40:29.202Z,34.50
2018-04-27T12:42:55.485Z,33.50
2018-04-27T12:45:21.785Z,33.20
2018-04-27T12:47:48.284Z,33.30
2018-04-27T12:50:14.579Z,32.30
2018-04-27T12:52:43.411Z,30.90
2018-04-27T12:55:10.107Z,30.90
2018-04-27T12:57:36.389Z,31.00
2018-04-27T13:00:03.189Z,31.50
2018-04-27T13:02:29.425Z,31.30
2018-04-27T13:04:55.738Z,30.70
2018-04-27T13:07:22.027Z,32.30
2018-04-27T13:09:48.322Z,30.10
2018-04-27T13:12:15.176Z,31.30
2018-04-27T13:14:41.462Z,30.00
2018-04-27T13:17:08.379Z,30.10
2018-04-27T13:19:34.685Z,30.20
2018-04-27T13:22:01.243Z,29.60
2018-04-27T13:24:27.501Z,30.30
2018-04-27T13:26:54.750Z,29.60
2018-04-27T13:29:23.210Z,29.60
2018-04-27T13:31:49.473Z,29.40
2018-04-27T13:34:16.479Z,29.00
2018-04-27T13:36:42.757Z,28.80
2018-04-27T13:39:09.776Z,28.60
2018-04-27T13:41:36.066Z,28.60
2018-04-27T13:44:02.913Z,28.30
2018-04-27T13:46:29.192Z,25.50
2018-04-27T13:48:55.985Z,24.90
2018-04-27T13:51:22.321Z,24.00
2018-04-27T13:53:49.545Z,22.40
2018-04-27T13:56:16.082Z,21.20
2018-04-27T13:58:42.767Z,21.40
2018-04-27T14:01:09.072Z,20.70
2018-04-27T14:03:35.340Z,21.00
2018-04-27T14:06:01.634Z,21.00
2018-04-27T14:08:27.913Z,20.90
2018-04-27T14:10:54.585Z,20.70
2018-04-27T14:13:20.865Z,20.40
2018-04-27T14:15:47.176Z,20.10
2018-04-27T14:18:13.466Z,19.70
2018-04-27T14:20:39.809Z,19.50
2018-04-27T14:23:06.374Z,19.10
2018-04-27T14:25:32.630Z,19.60
2018-04-27T14:27:58.890Z,20.30
2018-04-27T14:30:25.882Z,21.50
2018-04-27T14:32:52.173Z,21.50
2018-04-27T14:35:18.478Z,21.10
2018-04-27T14:37:44.834Z,20.50
2018-04-27T14:40:12.206Z,20.50
2018-04-27T14:42:38.477Z,20.30
2018-04-27T14:45:04.754Z,20.30
2018-04-27T14:47:35.914Z,19.90
2018-04-27T14:50:06.044Z,19.90
2018-04-27T14:52:33.126Z,20.30
2018-04-27T14:54:59.322Z,20.20
2018-04-27T14:57:25.617Z,20.10
2018-04-27T14:59:52.226Z,20.30
2018-04-27T15:02:19.446Z,21.10
2018-04-27T15:04:45.910Z,21.60
2018-04-27T15:07:12.181Z,21.90
2018-04-27T15:09:39.217Z,21.30
2018-04-27T15:12:05.514Z,21.20
2018-04-27T15:14:32.090Z,21.20
2018-04-27T15:16:58.436Z,23.30
2018-04-27T15:19:24.670Z,23.30
2018-04-27T15:21:50.949Z,23.00
2018-04-27T15:24:17.248Z,22.80
2018-04-27T15:26:43.779Z,22.90
2018-04-27T15:29:10.070Z,22.50
2018-04-27T15:31:36.326Z,21.40
2018-04-27T15:34:02.626Z,21.10
2018-04-27T15:36:28.893Z,21.20
2018-04-27T15:38:55.183Z,21.40
2018-04-27T15:41:21.454Z,21.00
2018-04-27T15:43:47.976Z,20.80
2018-04-27T15:46:17.569Z,21.20
2018-04-27T15:48:43.925Z,21.40
2018-04-27T15:51:10.184Z,21.50
2018-04-27T15:53:36.493Z,20.90
2018-04-27T15:56:02.808Z,21.20
2018-04-27T15:58:29.189Z,21.10
2018-04-27T16:00:55.506Z,20.30
2018-04-27T16:03:21.794Z,20.30
2018-04-27T16:05:48.402Z,20.10
2018-04-27T16:08:14.694Z,20.30
2018-04-27T16:10:40.970Z,19.80
2018-04-27T16:13:39.482Z,19.40
2018-04-27T16:16:06.662Z,19.40
2018-04-27T16:18:32.962Z,20.00
2018-04-27T16:20:59.221Z,20.70
2018-04-27T16:23:25.528Z,20.30
2018-04-27T16:25:52.024Z,21.40
2018-04-27T16:28:18.301Z,21.40
2018-04-27T16:30:45.405Z,21.00
2018-04-27T16:33:11.685Z,21.00
2018-04-27T16:35:38.173Z,21.30
2018-04-27T16:38:04.454Z,21.10
2018-04-27T16:40:31.010Z,21.10
2018-04-27T16:42:57.277Z,20.80
2018-04-27T16:45:23.813Z,20.80
2018-04-27T16:47:53.037Z,21.50
2018-04-27T16:50:19.302Z,21.90
2018-04-27T16:52:45.567Z,22.40
2018-04-27T16:55:11.912Z,21.70
2018-04-27T16:57:38.190Z,21.50
2018-04-27T17:00:04.458Z,21.30
2018-04-27T17:02:30.725Z,21.50
2018-04-27T17:04:57.030Z,21.90
2018-04-27T17:07:23.584Z,22.20
2018-04-27T17:09:50.126Z,23.20
2018-04-27T17:12:17.108Z,23.50
2018-04-27T17:14:43.413Z,23.90
2018-04-27T17:17:09.705Z,24.40
2018-04-27T17:19:35.981Z,24.40
2018-04-27T17:22:03.375Z,25.30
2018-04-27T17:24:29.677Z,25.50
2018-04-27T17:26:55.949Z,24.80
2018-04-27T17:29:22.245Z,25.40
2018-04-27T17:31:48.539Z,25.70
2018-04-27T17:34:15.298Z,26.70
2018-04-27T17:36:41.574Z,27.90
2018-04-27T17:39:08.174Z,29.20
2018-04-27T17:41:34.814Z,29.00
2018-04-27T17:44:01.129Z,28.50
2018-04-27T17:46:27.709Z,27.90
2018-04-27T17:48:54.006Z,28.00
2018-04-27T17:51:20.307Z,28.60
2018-04-27T17:53:46.578Z,29.10
2018-04-27T17:56:12.853Z,29.90
2018-04-27T17:58:39.821Z,30.50
2018-04-27T18:01:06.089Z,30.90
2018-04-27T18:03:32.639Z,31.30
2018-04-27T18:05:58.893Z,32.00
2018-04-27T18:08:25.906Z,32.30
2018-04-27T18:10:52.902Z,33.50
2018-04-27T18:13:20.153Z,33.50
2018-04-27T18:15:46.745Z,34.10
2018-04-27T18:18:13.050Z,34.30
2018-04-27T18:20:40.011Z,34.90
2018-04-27T18:23:06.646Z,34.90
2018-04-27T18:25:32.900Z,35.00
2018-04-27T18:27:59.914Z,35.50
2018-04-27T18:30:26.198Z,35.50
2018-04-27T18:32:52.462Z,36.40
2018-04-27T18:35:18.810Z,37.20
2018-04-27T18:37:45.066Z,37.30
2018-04-27T18:40:11.613Z,38.10
2018-04-27T18:42:38.166Z,37.20
2018-04-27T18:45:05.195Z,37.60
2018-04-27T18:47:32.209Z,38.40
2018-04-27T18:49:58.473Z,37.80
2018-04-27T18:52:24.728Z,38.90
2018-04-27T18:54:51.168Z,40.00
2018-04-27T18:57:25.655Z,40.00
2018-04-27T18:59:51.949Z,40.30
2018-04-27T19:02:18.209Z,42.30
2018-04-27T19:04:44.609Z,40.90
2018-04-27T19:07:10.867Z,41.50
2018-04-27T19:09:37.945Z,41.90
2018-04-27T19:12:04.945Z,41.90
2018-04-27T19:14:31.410Z,41.90
2018-04-27T19:16:57.653Z,41.90
2018-04-27T19:19:23.929Z,43.50
2018-04-27T19:21:50.222Z,44.00
2018-04-27T19:24:16.858Z,44.00
2018-04-27T19:26:43.383Z,42.90
2018-04-27T19:29:11.061Z,43.20
2018-04-27T19:31:37.406Z,43.20
2018-04-27T19:34:03.661Z,43.30
2018-04-27T19:36:33.333Z,44.20
2018-04-27T19:38:59.620Z,43.80
2018-04-27T19:41:26.841Z,44.40
2018-04-27T19:43:55.094Z,44.00
2018-04-27T19:46:21.423Z,44.10
2018-04-27T19:48:47.669Z,44.70
2018-04-27T19:51:14.693Z,45.70
2018-04-27T19:53:42.337Z,44.50
2018-04-27T19:56:08.613Z,44.50
2018-04-27T19:58:36.141Z,44.40
2018-04-27T20:01:02.497Z,44.70
2018-04-27T20:03:28.777Z,46.40
2018-04-27T20:05:55.161Z,45.60
2018-04-27T20:08:21.461Z,46.50
2018-04-27T20:10:48.612Z,46.60
2018-04-27T20:13:14.933Z,46.50
2018-04-27T20:15:41.422Z,45.80
2018-04-27T20:18:13.876Z,45.90
2018-04-27T20:20:40.153Z,45.40
2018-04-27T20:23:07.213Z,45.50
2018-04-27T20:25:34.030Z,45.70
2018-04-27T20:28:00.886Z,46.30
2018-04-27T20:30:31.165Z,46.60
2018-04-27T20:33:01.383Z,47.60
2018-04-27T20:35:28.671Z,47.30
2018-04-27T20:38:02.050Z,47.50
2018-04-27T20:40:31.411Z,47.50
2018-04-27T20:43:06.549Z,48.40
2018-04-27T20:45:33.470Z,47.90
2018-04-27T20:48:01.935Z,47.80
2018-04-27T20:50:30.830Z,47.80
2018-04-27T20:53:01.459Z,47.70
2018-04-27T20:55:31.429Z,48.40
2018-04-27T20:58:01.530Z,49.40
2018-04-27T21:00:32.002Z,49.10
2018-04-27T21:03:01.529Z,49.10
2018-04-27T21:05:27.827Z,48.40
2018-04-27T21:07:54.114Z,49.60
2018-04-27T21:10:20.760Z,51.00
2018-04-27T21:12:48.550Z,51.30
2018-04-27T21:15:15.485Z,49.90
2018-04-27T21:17:45.176Z,49.80
2018-04-27T21:20:12.189Z,50.30
2018-04-27T21:22:40.090Z,50.30
2018-04-27T21:25:06.488Z,50.80
2018-04-27T21:27:33.794Z,51.00
2018-04-27T21:30:00.130Z,51.60
2018-04-27T21:32:26.593Z,51.10
2018-04-27T21:34:52.855Z,51.00
2018-04-27T21:37:19.161Z,51.30
2018-04-27T21:39:45.458Z,51.60
2018-04-27T21:42:15.619Z,52.10
2018-04-27T21:44:41.902Z,52.50
2018-04-27T21:47:32.357Z,52.50
2018-04-27T21:50:00.469Z,52.80
2018-04-27T21:52:29.537Z,53.10
2018-04-27T21:54:55.849Z,52.90
2018-04-27T21:57:27.558Z,53.50
2018-04-27T22:00:13.373Z,53.20
2018-04-27T22:03:01.762Z,53.10
2018-04-27T22:05:39.862Z,53.10
2018-04-27T22:08:06.116Z,53.60
2018-04-27T22:10:35.425Z,53.90
2018-04-27T22:13:02.028Z,54.00
2018-04-27T22:15:30.461Z,54.00
2018-04-27T22:17:57.921Z,54.40
2018-04-27T22:20:39.977Z,54.70
2018-04-27T22:23:07.908Z,54.70
2018-04-27T22:25:34.578Z,55.00
2018-04-27T22:28:03.118Z,55.00
2018-04-27T22:30:34.209Z,55.10
2018-04-27T22:36:19.501Z,54.70
2018-04-27T22:39:04.620Z,54.50
2018-04-27T22:41:31.413Z,54.40
2018-04-27T22:43:57.663Z,54.50
2018-04-27T22:46:24.094Z,55.00
2018-04-27T22:48:51.458Z,55.30
2018-04-27T22:51:22.925Z,55.50
2018-04-27T22:54:04.213Z,56.20
2018-04-27T22:56:52.397Z,57.50
2018-04-27T22:59:24.354Z,56.90
2018-04-27T23:02:11.818Z,57.10
2018-04-27T23:04:38.059Z,57.60
2018-04-27T23:07:04.322Z,57.20
2018-04-27T23:09:30.590Z,57.20
2018-04-27T23:11:57.689Z,57.10
2018-04-27T23:14:27.870Z,56.50
2018-04-27T23:16:55.937Z,56.30
2018-04-27T23:19:23.205Z,56.00
2018-04-27T23:22:07.075Z,56.40
2018-04-27T23:24:33.342Z,56.30
2018-04-27T23:27:00.429Z,56.00
2018-04-27T23:29:30.489Z,56.00
2018-04-27T23:31:57.211Z,56.00
2018-04-27T23:34:25.545Z,56.00
2018-04-27T23:36:54.536Z,56.30
2018-04-27T23:39:21.552Z,56.50
2018-04-27T23:41:48.237Z,56.50
2018-04-27T23:44:18.901Z,56.30
2018-04-27T23:46:46.169Z,56.20
2018-04-27T23:49:12.425Z,56.30
2018-04-27T23:51:38.673Z,56.60
2018-04-27T23:54:06.831Z,56.80
2018-04-27T23:56:42.451Z,57.20
2018-04-27T23:59:09.058Z,57.10
